createdAt,value
2022-10-30T00:00:37.375Z,8.57
2022-10-30T00:03:04.497Z,8.30
2022-10-30T00:05:31.900Z,9.00
2022-10-30T00:07:59.288Z,8.85
2022-10-30T00:10:26.658Z,8.57
2022-10-30T00:12:54.077Z,8.77
2022-10-30T00:15:20.822Z,8.20
2022-10-30T00:17:47.567Z,9.48
2022-10-30T00:20:14.259Z,8.40
2022-10-30T00:22:41.008Z,8.45
2022-10-30T00:25:08.179Z,9.23
2022-10-30T00:27:34.975Z,8.65
2022-10-30T00:30:01.761Z,8.73
2022-10-30T00:32:28.615Z,8.45
2022-10-30T00:34:55.446Z,8.80
2022-10-30T00:37:22.320Z,9.10
2022-10-30T00:39:49.059Z,8.07
2022-10-30T00:42:17.130Z,8.73
2022-10-30T00:44:52.684Z,8.93
2022-10-30T00:47:27.099Z,8.73
2022-10-30T00:50:15.869Z,7.73
2022-10-30T00:53:07.276Z,8.87
2022-10-30T00:55:42.466Z,8.70
2022-10-30T00:58:13.098Z,9.57
2022-10-30T01:00:43.879Z,8.87
2022-10-30T01:03:11.355Z,8.90
2022-10-30T01:05:39.421Z,9.07
2022-10-30T01:08:06.304Z,8.43
2022-10-30T01:10:33.362Z,8.73
2022-10-30T01:13:02.036Z,9.07
2022-10-30T01:15:34.962Z,8.50
2022-10-30T01:18:23.808Z,8.60
2022-10-30T01:20:59.507Z,8.90
2022-10-30T01:23:37.820Z,8.07
2022-10-30T01:26:24.333Z,8.30
2022-10-30T01:28:57.915Z,9.27
2022-10-30T01:31:49.064Z,8.97
2022-10-30T01:34:28.055Z,8.33
2022-10-30T01:36:57.748Z,8.77
2022-10-30T01:39:28.033Z,8.33
2022-10-30T01:41:55.447Z,7.83
2022-10-30T01:44:30.178Z,8.63
2022-10-30T01:47:29.075Z,8.33
2022-10-30T01:50:14.101Z,8.17
2022-10-30T01:52:48.237Z,8.77
2022-10-30T01:55:36.754Z,8.65
2022-10-30T01:58:09.774Z,9.07
2022-10-30T02:00:41.100Z,8.37
2022-10-30T02:03:07.999Z,8.93
2022-10-30T02:05:43.258Z,8.57
2022-10-30T02:08:10.935Z,8.00
2022-10-30T02:10:41.257Z,8.47
2022-10-30T02:13:08.152Z,9.20
2022-10-30T02:15:35.734Z,8.87
2022-10-30T02:18:02.765Z,9.27
2022-10-30T02:20:30.547Z,8.87
2022-10-30T02:22:59.541Z,7.93
2022-10-30T02:25:32.376Z,8.57
2022-10-30T02:27:59.844Z,7.60
2022-10-30T02:30:28.660Z,9.23
2022-10-30T02:32:56.039Z,8.03
2022-10-30T02:35:23.059Z,8.63
2022-10-30T02:37:50.251Z,8.45
2022-10-30T02:40:17.132Z,8.17
2022-10-30T02:42:43.971Z,8.73
2022-10-30T02:45:11.794Z,7.93
2022-10-30T02:47:38.560Z,7.97
2022-10-30T02:50:06.022Z,8.03
2022-10-30T02:52:35.329Z,8.43
2022-10-30T02:55:02.067Z,7.63
2022-10-30T02:57:28.965Z,8.20
2022-10-30T02:59:55.775Z,8.20
2022-10-30T03:02:22.607Z,8.80
2022-10-30T03:04:50.151Z,8.07
2022-10-30T03:07:16.929Z,8.03
2022-10-30T03:09:43.705Z,8.23
2022-10-30T03:12:10.581Z,7.50
2022-10-30T03:14:37.409Z,8.10
2022-10-30T03:17:04.548Z,8.70
2022-10-30T03:19:31.984Z,8.23
2022-10-30T03:21:58.920Z,7.53
2022-10-30T03:24:25.688Z,8.90
2022-10-30T03:26:52.573Z,8.80
2022-10-30T03:29:19.304Z,7.53
2022-10-30T03:31:46.197Z,8.50
2022-10-30T03:34:23.519Z,9.07
2022-10-30T03:36:50.575Z,9.13
2022-10-30T03:39:17.317Z,8.63
2022-10-30T03:41:45.927Z,7.80
2022-10-30T03:44:13.046Z,7.93
2022-10-30T03:46:39.751Z,8.87
2022-10-30T03:49:19.376Z,8.53
2022-10-30T03:51:46.242Z,8.10
2022-10-30T03:54:12.964Z,8.43
2022-10-30T03:56:39.703Z,8.00
2022-10-30T03:59:08.374Z,8.20
2022-10-30T04:01:39.256Z,8.53
2022-10-30T04:04:06.130Z,8.60
2022-10-30T04:06:32.928Z,9.27
2022-10-30T04:08:59.683Z,9.23
2022-10-30T04:11:28.180Z,8.17
2022-10-30T04:13:54.958Z,8.20
2022-10-30T04:16:22.221Z,8.43
2022-10-30T04:18:49.011Z,8.40
2022-10-30T04:21:15.757Z,8.80
2022-10-30T04:23:42.652Z,8.40
2022-10-30T04:26:10.790Z,8.83
2022-10-30T04:28:39.857Z,8.97
2022-10-30T04:31:06.598Z,9.00
2022-10-30T04:33:34.254Z,8.23
2022-10-30T04:36:01.272Z,8.00
2022-10-30T04:38:28.257Z,7.97
2022-10-30T04:40:56.367Z,8.10
2022-10-30T04:43:26.508Z,8.13
2022-10-30T04:45:53.354Z,8.27
2022-10-30T04:48:20.146Z,8.43
2022-10-30T04:50:48.049Z,7.80
2022-10-30T04:53:26.018Z,8.70
2022-10-30T04:55:59.584Z,8.50
2022-10-30T04:58:27.653Z,8.33
2022-10-30T05:01:05.794Z,8.73
2022-10-30T05:03:33.802Z,8.10
2022-10-30T05:06:24.882Z,8.23
2022-10-30T05:08:52.267Z,8.50
2022-10-30T05:11:48.366Z,8.93
2022-10-30T05:14:15.248Z,8.23
2022-10-30T05:16:43.874Z,8.03
2022-10-30T05:19:10.667Z,8.20
2022-10-30T05:21:40.049Z,8.43
2022-10-30T05:24:07.198Z,8.03
2022-10-30T05:26:42.893Z,8.77
2022-10-30T05:29:12.257Z,9.43
2022-10-30T05:31:39.515Z,8.17
2022-10-30T05:34:36.009Z,8.33
2022-10-30T05:37:03.431Z,8.87
2022-10-30T05:39:30.151Z,8.13
2022-10-30T05:41:57.893Z,8.93
2022-10-30T05:44:59.271Z,8.60
2022-10-30T05:47:22.575Z,8.60
2022-10-30T05:49:52.885Z,8.80
2022-10-30T05:52:22.097Z,9.00
2022-10-30T05:54:50.835Z,9.37
2022-10-30T05:57:24.932Z,8.87
2022-10-30T05:59:53.099Z,8.70
2022-10-30T06:02:20.163Z,8.30
2022-10-30T06:04:47.007Z,8.97
2022-10-30T06:07:14.450Z,8.90
2022-10-30T06:09:41.605Z,9.20
2022-10-30T06:12:27.735Z,8.13
2022-10-30T06:15:12.232Z,8.27
2022-10-30T06:17:39.249Z,7.77
2022-10-30T06:20:23.143Z,8.63
2022-10-30T06:23:01.153Z,8.20
2022-10-30T06:25:41.308Z,8.43
2022-10-30T06:28:21.462Z,8.93
2022-10-30T06:30:50.070Z,8.17
2022-10-30T06:33:16.784Z,7.97
2022-10-30T06:35:49.634Z,9.07
2022-10-30T06:38:17.706Z,8.70
2022-10-30T06:40:45.396Z,9.13
2022-10-30T06:43:30.199Z,7.93
2022-10-30T06:46:00.009Z,8.37
2022-10-30T06:48:27.787Z,8.77
2022-10-30T06:51:00.440Z,8.80
2022-10-30T06:53:30.073Z,9.40
2022-10-30T06:56:11.570Z,9.90
2022-10-30T06:58:56.897Z,7.93
2022-10-30T07:01:43.537Z,8.43
2022-10-30T07:04:17.942Z,8.70
2022-10-30T07:06:44.904Z,9.03
2022-10-30T07:09:11.711Z,8.60
2022-10-30T07:11:40.356Z,8.60
2022-10-30T07:14:17.362Z,7.97
2022-10-30T07:16:58.487Z,9.70
2022-10-30T07:19:26.218Z,8.47
2022-10-30T07:21:55.005Z,8.37
2022-10-30T07:24:22.687Z,8.40
2022-10-30T07:27:15.347Z,8.00
2022-10-30T07:29:49.528Z,9.37
2022-10-30T07:32:20.497Z,8.27
2022-10-30T07:35:10.616Z,9.47
2022-10-30T07:38:11.987Z,9.30
2022-10-30T07:40:55.440Z,9.57
2022-10-30T07:43:47.895Z,8.67
2022-10-30T07:46:33.426Z,9.43
2022-10-30T07:49:18.498Z,9.60
2022-10-30T07:51:49.960Z,8.70
2022-10-30T07:54:18.164Z,8.87
2022-10-30T07:56:45.091Z,9.50
2022-10-30T07:59:34.644Z,9.17
2022-10-30T08:02:20.222Z,8.60
2022-10-30T08:05:04.444Z,9.53
2022-10-30T08:07:45.756Z,9.65
2022-10-30T08:10:12.535Z,8.82
2022-10-30T08:12:40.588Z,9.50
2022-10-30T08:15:08.370Z,9.25
2022-10-30T08:17:44.826Z,7.90
2022-10-30T08:20:13.568Z,8.43
2022-10-30T08:22:51.793Z,7.05
2022-10-30T08:25:24.275Z,7.32
2022-10-30T08:27:59.500Z,6.85
2022-10-30T08:30:34.256Z,7.13
2022-10-30T08:33:04.710Z,7.53
2022-10-30T08:35:51.839Z,6.75
2022-10-30T08:38:19.044Z,6.53
2022-10-30T08:40:52.954Z,6.95
2022-10-30T08:43:20.733Z,7.15
2022-10-30T08:45:48.107Z,6.90
2022-10-30T08:48:18.914Z,6.55
2022-10-30T08:50:45.832Z,6.25
2022-10-30T08:53:17.816Z,7.28
2022-10-30T08:55:45.763Z,7.40
2022-10-30T08:58:23.320Z,7.55
2022-10-30T09:00:50.235Z,6.72
2022-10-30T09:03:16.980Z,6.75
2022-10-30T09:06:06.847Z,6.28
2022-10-30T09:09:02.340Z,6.38
2022-10-30T09:11:33.551Z,6.07
2022-10-30T09:14:00.302Z,5.93
2022-10-30T09:16:27.188Z,6.47
2022-10-30T09:18:53.998Z,6.50
2022-10-30T09:21:22.465Z,6.43
2022-10-30T09:23:52.084Z,6.43
2022-10-30T09:26:34.007Z,6.88
2022-10-30T09:29:19.201Z,6.53
2022-10-30T09:31:58.697Z,6.15
2022-10-30T09:34:30.845Z,6.05
2022-10-30T09:37:02.199Z,6.78
2022-10-30T09:39:31.335Z,6.13
2022-10-30T09:42:10.301Z,6.10
2022-10-30T09:45:02.129Z,5.55
2022-10-30T09:47:37.968Z,6.50
2022-10-30T09:50:35.747Z,5.60
2022-10-30T09:53:26.087Z,5.78
2022-10-30T09:56:15.790Z,6.32
2022-10-30T09:59:04.002Z,5.78
2022-10-30T10:01:36.904Z,6.00
2022-10-30T10:04:08.263Z,5.43
2022-10-30T10:07:27.492Z,6.45
2022-10-30T10:10:25.102Z,6.20
2022-10-30T10:13:01.656Z,6.00
2022-10-30T10:15:33.730Z,5.63
2022-10-30T10:18:02.796Z,5.53
2022-10-30T10:20:37.144Z,5.68
2022-10-30T10:23:16.460Z,6.03
2022-10-30T10:25:51.185Z,5.88
2022-10-30T10:28:23.897Z,5.78
2022-10-30T10:31:02.013Z,5.78
2022-10-30T10:33:47.428Z,5.20
2022-10-30T10:36:25.567Z,5.50
2022-10-30T10:39:05.215Z,5.63
2022-10-30T10:41:40.942Z,4.75
2022-10-30T10:44:22.657Z,4.40
2022-10-30T10:47:07.556Z,5.28
2022-10-30T10:49:47.752Z,5.55
2022-10-30T10:52:36.543Z,5.20
2022-10-30T10:55:07.294Z,4.53
2022-10-30T10:57:39.234Z,4.85
2022-10-30T11:00:14.361Z,5.20
2022-10-30T11:02:53.729Z,4.93
2022-10-30T11:05:23.158Z,4.60
2022-10-30T11:07:50.683Z,4.53
2022-10-30T11:10:19.779Z,4.68
2022-10-30T11:12:46.892Z,4.88
2022-10-30T11:15:29.535Z,4.63
2022-10-30T11:18:01.505Z,5.07
2022-10-30T11:20:42.848Z,4.20
2022-10-30T11:23:40.789Z,5.10
2022-10-30T11:26:20.482Z,4.57
2022-10-30T11:29:11.322Z,4.57
2022-10-30T11:31:43.131Z,4.18
2022-10-30T11:34:19.919Z,4.53
2022-10-30T11:36:48.753Z,5.03
2022-10-30T11:39:27.271Z,5.18
2022-10-30T11:41:59.848Z,5.35
2022-10-30T11:44:45.527Z,5.97
2022-10-30T11:47:15.581Z,5.50
2022-10-30T11:50:02.610Z,4.85
2022-10-30T11:52:29.764Z,4.47
2022-10-30T11:55:00.857Z,5.25
2022-10-30T11:57:37.774Z,4.70
2022-10-30T12:00:08.233Z,5.07
2022-10-30T12:02:43.256Z,4.95
2022-10-30T12:05:25.382Z,5.07
2022-10-30T12:07:53.855Z,5.70
2022-10-30T12:10:25.968Z,4.97
2022-10-30T12:12:53.207Z,4.95
2022-10-30T12:15:24.736Z,5.15
2022-10-30T12:17:59.997Z,5.00
2022-10-30T12:20:28.178Z,5.68
2022-10-30T12:22:55.559Z,4.95
2022-10-30T12:25:28.402Z,5.45
2022-10-30T12:28:00.375Z,5.75
2022-10-30T12:30:31.204Z,5.88
2022-10-30T12:33:36.588Z,5.85
2022-10-30T12:36:12.238Z,6.20
2022-10-30T12:39:17.848Z,6.00
2022-10-30T12:41:56.685Z,5.82
2022-10-30T12:44:36.709Z,5.47
2022-10-30T12:47:41.962Z,7.40
2022-10-30T12:50:23.212Z,8.13
2022-10-30T12:52:59.687Z,5.82
2022-10-30T12:55:39.858Z,5.22
2022-10-30T12:58:15.450Z,5.38
2022-10-30T13:00:57.031Z,5.70
2022-10-30T13:03:34.709Z,5.25
2022-10-30T13:06:10.720Z,5.97
2022-10-30T13:08:50.959Z,6.07
2022-10-30T13:11:23.927Z,5.60
2022-10-30T13:13:52.912Z,5.63
2022-10-30T13:16:26.242Z,5.93
2022-10-30T13:19:00.166Z,6.22
2022-10-30T13:21:53.241Z,6.00
2022-10-30T13:24:38.380Z,5.75
2022-10-30T13:27:08.861Z,6.38
2022-10-30T13:29:51.422Z,6.40
2022-10-30T13:32:36.511Z,7.20
2022-10-30T13:35:10.091Z,6.45
2022-10-30T13:37:44.153Z,6.90
2022-10-30T13:40:42.063Z,6.53
2022-10-30T13:43:32.885Z,6.07
2022-10-30T13:46:17.557Z,6.07
2022-10-30T13:49:05.782Z,6.72
2022-10-30T13:51:42.460Z,5.88
2022-10-30T13:54:21.160Z,6.50
2022-10-30T13:56:49.370Z,6.18
2022-10-30T13:59:28.354Z,6.40
2022-10-30T14:02:13.245Z,5.88
2022-10-30T14:04:55.520Z,5.32
2022-10-30T14:08:01.806Z,6.50
2022-10-30T14:10:54.568Z,5.60
2022-10-30T14:13:52.463Z,6.65
2022-10-30T14:16:41.900Z,6.05
2022-10-30T14:19:09.915Z,5.55
2022-10-30T14:21:56.503Z,6.35
2022-10-30T14:24:31.908Z,6.47
2022-10-30T14:27:04.821Z,8.68
2022-10-30T14:29:34.696Z,8.75
2022-10-30T14:32:19.573Z,8.25
2022-10-30T14:34:55.156Z,8.48
2022-10-30T14:37:26.913Z,8.93
2022-10-30T14:39:55.355Z,7.97
2022-10-30T14:42:53.075Z,8.52
2022-10-30T14:45:54.931Z,7.30
2022-10-30T14:48:38.634Z,7.75
2022-10-30T14:51:34.815Z,7.68
2022-10-30T14:54:28.774Z,8.23
2022-10-30T14:56:55.548Z,8.75
2022-10-30T14:59:31.424Z,8.80
2022-10-30T15:02:15.505Z,8.40
2022-10-30T15:04:45.350Z,8.52
2022-10-30T15:07:39.181Z,7.45
2022-10-30T15:10:17.918Z,8.20
2022-10-30T15:13:18.705Z,8.23
2022-10-30T15:15:48.707Z,8.38
2022-10-30T15:18:20.376Z,8.75
2022-10-30T15:20:52.662Z,8.35
2022-10-30T15:23:27.117Z,8.48
2022-10-30T15:25:56.186Z,8.35
2022-10-30T15:28:27.618Z,8.95
2022-10-30T15:31:23.265Z,8.57
2022-10-30T15:33:50.718Z,8.88
2022-10-30T15:36:23.085Z,8.48
2022-10-30T15:39:12.655Z,10.10
2022-10-30T15:41:46.951Z,9.60
2022-10-30T15:46:52.358Z,26.35
2022-10-30T15:49:31.280Z,12.25
2022-10-30T15:51:59.408Z,9.88
2022-10-30T15:54:28.470Z,9.80
2022-10-30T15:57:36.510Z,7.32
2022-10-30T15:59:55.144Z,8.15
2022-10-30T16:02:24.019Z,8.45
2022-10-30T16:04:51.057Z,8.00
2022-10-30T16:07:24.506Z,8.10
2022-10-30T16:10:02.801Z,8.10
2022-10-30T16:12:32.707Z,8.65
2022-10-30T16:15:06.777Z,8.63
2022-10-30T16:17:34.827Z,8.63
2022-10-30T16:20:04.041Z,8.35
2022-10-30T16:22:39.224Z,9.70
2022-10-30T16:25:09.368Z,8.80
2022-10-30T16:27:44.257Z,10.82
2022-10-30T16:30:16.307Z,10.32
2022-10-30T16:32:52.242Z,9.90
2022-10-30T16:35:21.813Z,10.60
2022-10-30T16:37:50.603Z,10.35
2022-10-30T16:40:22.041Z,9.93
2022-10-30T16:42:55.270Z,9.73
2022-10-30T16:45:25.113Z,9.90
2022-10-30T16:48:03.093Z,10.43
2022-10-30T16:50:38.327Z,11.07
2022-10-30T16:53:17.360Z,11.18
2022-10-30T16:55:44.403Z,11.20
2022-10-30T16:58:14.157Z,11.07
2022-10-30T17:00:42.454Z,10.40
2022-10-30T17:03:11.864Z,11.07
2022-10-30T17:05:43.559Z,12.95
2022-10-30T17:08:13.366Z,11.15
2022-10-30T17:10:54.146Z,11.35
2022-10-30T17:13:44.229Z,10.88
2022-10-30T17:16:34.009Z,10.02
2022-10-30T17:19:22.029Z,10.43
2022-10-30T17:21:52.225Z,10.15
2022-10-30T17:24:22.806Z,10.23
2022-10-30T17:26:58.051Z,11.18
2022-10-30T17:29:36.747Z,11.25
2022-10-30T17:32:14.546Z,10.38
2022-10-30T17:34:41.310Z,10.88
2022-10-30T17:37:08.044Z,11.40
2022-10-30T17:39:34.796Z,11.30
2022-10-30T17:42:01.670Z,11.43
2022-10-30T17:44:31.397Z,10.25
2022-10-30T17:46:58.131Z,11.43
2022-10-30T17:49:28.448Z,10.35
2022-10-30T17:51:55.253Z,10.02
2022-10-30T17:54:22.629Z,10.48
2022-10-30T17:56:49.657Z,11.07
2022-10-30T17:59:16.447Z,9.95
2022-10-30T18:01:43.468Z,10.35
2022-10-30T18:04:20.498Z,9.52
2022-10-30T18:06:48.160Z,9.93
2022-10-30T18:09:15.159Z,10.25
2022-10-30T18:11:41.966Z,10.52
2022-10-30T18:14:11.010Z,9.93
2022-10-30T18:16:38.178Z,10.38
2022-10-30T18:19:10.356Z,9.75
2022-10-30T18:21:37.739Z,10.45
2022-10-30T18:24:14.598Z,10.27
2022-10-30T18:26:42.021Z,9.77
2022-10-30T18:29:09.764Z,9.85
2022-10-30T18:31:37.975Z,10.02
2022-10-30T18:34:10.057Z,9.18
2022-10-30T18:36:36.894Z,9.45
2022-10-30T18:39:04.123Z,10.15
2022-10-30T18:41:35.228Z,9.68
2022-10-30T18:44:02.678Z,9.63
2022-10-30T18:46:33.821Z,10.18
2022-10-30T18:49:00.703Z,10.43
2022-10-30T18:51:28.988Z,9.63
2022-10-30T18:53:57.139Z,9.27
2022-10-30T18:56:29.371Z,10.45
2022-10-30T18:59:01.843Z,9.25
2022-10-30T19:01:34.199Z,9.60
2022-10-30T19:04:02.366Z,10.25
2022-10-30T19:06:29.922Z,11.20
2022-10-30T19:08:56.887Z,10.40
2022-10-30T19:11:25.338Z,10.07
2022-10-30T19:13:54.187Z,10.13
2022-10-30T19:16:26.263Z,10.23
2022-10-30T19:18:53.211Z,10.38
2022-10-30T19:21:25.636Z,10.75
2022-10-30T19:23:52.985Z,10.80
2022-10-30T19:26:19.941Z,10.57
2022-10-30T19:28:46.765Z,10.10
2022-10-30T19:31:15.967Z,10.00
2022-10-30T19:33:43.237Z,11.73
2022-10-30T19:36:28.354Z,11.13
2022-10-30T19:38:56.146Z,10.13
2022-10-30T19:41:24.756Z,10.90
2022-10-30T19:43:53.181Z,11.88
2022-10-30T19:46:20.296Z,10.52
2022-10-30T19:48:57.139Z,11.50
2022-10-30T19:51:24.301Z,11.23
2022-10-30T19:53:53.124Z,11.32
2022-10-30T19:56:20.260Z,11.30
2022-10-30T19:58:55.567Z,11.40
2022-10-30T20:01:22.282Z,11.88
2022-10-30T20:03:49.055Z,12.13
2022-10-30T20:06:15.679Z,13.10
2022-10-30T20:08:42.324Z,13.27
2022-10-30T20:11:08.928Z,12.52
2022-10-30T20:13:37.226Z,12.35
2022-10-30T20:16:05.092Z,12.50
2022-10-30T20:18:33.530Z,12.25
2022-10-30T20:21:01.310Z,12.30
2022-10-30T20:23:28.443Z,12.73
2022-10-30T20:25:58.387Z,12.73
2022-10-30T20:28:51.477Z,13.07
2022-10-30T20:31:18.154Z,12.43
2022-10-30T20:33:44.790Z,13.30
2022-10-30T20:36:12.854Z,13.60
2022-10-30T20:38:40.268Z,13.65
2022-10-30T20:41:07.186Z,13.18
2022-10-30T20:43:36.058Z,12.10
2022-10-30T20:46:03.811Z,12.27
2022-10-30T20:48:30.638Z,13.35
2022-10-30T20:50:57.802Z,12.60
2022-10-30T20:53:24.492Z,13.18
2022-10-30T20:55:51.143Z,12.35
2022-10-30T20:58:18.030Z,15.93
2022-10-30T21:00:44.909Z,12.75
2022-10-30T21:03:14.458Z,12.95
2022-10-30T21:05:44.250Z,12.02
2022-10-30T21:08:14.997Z,12.63
2022-10-30T21:10:41.754Z,11.88
2022-10-30T21:13:09.726Z,12.05
2022-10-30T21:15:41.617Z,12.35
2022-10-30T21:18:08.703Z,11.25
2022-10-30T21:20:36.559Z,11.80
2022-10-30T21:23:03.355Z,12.95
2022-10-30T21:25:32.588Z,11.95
2022-10-30T21:27:59.692Z,11.98
2022-10-30T21:30:26.367Z,11.02
2022-10-30T21:32:53.003Z,10.85
2022-10-30T21:35:19.855Z,11.85
2022-10-30T21:37:46.515Z,11.18
2022-10-30T21:40:13.639Z,11.40
2022-10-30T21:42:40.295Z,11.45
2022-10-30T21:45:07.334Z,11.40
2022-10-30T21:47:34.145Z,10.80
2022-10-30T21:50:06.084Z,11.68
2022-10-30T21:52:34.538Z,10.80
2022-10-30T21:55:01.187Z,10.70
2022-10-30T21:57:28.646Z,10.18
2022-10-30T21:59:56.066Z,9.52
2022-10-30T22:02:24.170Z,9.20
2022-10-30T22:04:50.775Z,9.68
2022-10-30T22:07:18.433Z,8.73
2022-10-30T22:09:45.115Z,8.50
2022-10-30T22:12:11.901Z,8.75
2022-10-30T22:14:38.540Z,8.60
2022-10-30T22:17:05.202Z,7.78
2022-10-30T22:19:31.892Z,8.65
2022-10-30T22:21:58.549Z,8.32
2022-10-30T22:24:25.176Z,8.45
2022-10-30T22:26:51.768Z,8.70
2022-10-30T22:29:18.410Z,8.57
2022-10-30T22:31:45.053Z,9.77
2022-10-30T22:34:12.615Z,9.75
2022-10-30T22:36:39.331Z,10.23
2022-10-30T22:39:07.634Z,10.82
2022-10-30T22:41:37.577Z,10.52
2022-10-30T22:44:07.843Z,10.63
2022-10-30T22:46:35.625Z,10.20
2022-10-30T22:49:02.234Z,10.13
2022-10-30T22:51:30.983Z,12.00
2022-10-30T22:53:59.122Z,11.43
2022-10-30T22:56:26.955Z,11.85
2022-10-30T22:58:54.213Z,11.60
2022-10-30T23:01:25.547Z,11.27
2022-10-30T23:03:53.207Z,11.43
2022-10-30T23:06:19.910Z,11.37
2022-10-30T23:08:46.589Z,11.67
2022-10-30T23:11:13.672Z,10.50
2022-10-30T23:13:40.589Z,10.37
2022-10-30T23:16:08.809Z,10.33
2022-10-30T23:18:35.583Z,11.27
2022-10-30T23:21:06.781Z,9.87
2022-10-30T23:23:37.101Z,10.30
2022-10-30T23:26:05.634Z,11.93
2022-10-30T23:28:32.222Z,11.57
2022-10-30T23:30:59.018Z,11.40
2022-10-30T23:33:25.747Z,12.00
2022-10-30T23:35:57.699Z,12.03
2022-10-30T23:38:24.351Z,12.30
2022-10-30T23:40:50.922Z,11.80
2022-10-30T23:43:17.571Z,11.10
2022-10-30T23:45:44.170Z,11.90
2022-10-30T23:48:10.760Z,11.27
2022-10-30T23:50:37.338Z,10.80
2022-10-30T23:53:03.934Z,11.77
2022-10-30T23:55:30.690Z,11.10
2022-10-30T23:57:57.655Z,11.00
